createdAt,value
2019-06-20T00:00:26.831Z,0.00
2019-06-20T00:01:26.830Z,0.00
2019-06-20T00:02:26.809Z,0.00
2019-06-20T00:03:26.804Z,0.00
2019-06-20T00:04:26.797Z,0.00
2019-06-20T00:05:26.803Z,0.00
2019-06-20T00:06:26.791Z,0.00
2019-06-20T00:07:26.757Z,0.00
2019-06-20T00:08:26.747Z,0.00
2019-06-20T00:09:26.736Z,0.00
2019-06-20T00:10:26.751Z,0.00
2019-06-20T00:11:26.724Z,0.00
2019-06-20T00:12:26.700Z,0.00
2019-06-20T00:13:26.688Z,0.00
2019-06-20T00:14:26.678Z,0.00
2019-06-20T00:15:26.690Z,0.00
2019-06-20T00:16:26.668Z,0.00
2019-06-20T00:17:26.645Z,0.00
2019-06-20T00:18:26.647Z,0.00
2019-06-20T00:19:26.632Z,0.00
2019-06-20T00:20:26.634Z,0.00
2019-06-20T00:21:26.597Z,0.00
2019-06-20T00:22:26.605Z,0.00
2019-06-20T00:23:26.581Z,0.00
2019-06-20T00:24:26.566Z,0.00
2019-06-20T00:25:26.592Z,0.00
2019-06-20T00:26:26.580Z,0.00
2019-06-20T00:27:26.602Z,0.00
2019-06-20T00:28:26.526Z,0.00
2019-06-20T00:29:26.517Z,0.00
2019-06-20T00:32:27.599Z,0.00
2019-06-20T00:33:26.477Z,0.00
2019-06-20T00:34:26.466Z,0.00
2019-06-20T00:35:26.461Z,0.00
2019-06-20T00:36:26.483Z,0.00
2019-06-20T00:37:26.417Z,0.00
2019-06-20T00:38:26.418Z,0.00
2019-06-20T00:39:26.402Z,0.00
2019-06-20T00:40:26.394Z,0.00
2019-06-20T00:41:26.586Z,0.00
2019-06-20T00:42:26.367Z,0.00
2019-06-20T00:43:26.360Z,0.00
2019-06-20T00:44:26.343Z,0.00
2019-06-20T00:45:26.338Z,0.00
2019-06-20T00:46:26.367Z,0.00
2019-06-20T00:47:26.319Z,0.00
2019-06-20T00:48:26.301Z,0.00
2019-06-20T00:49:26.290Z,0.00
2019-06-20T00:50:26.278Z,0.00
2019-06-20T00:51:26.265Z,0.00
2019-06-20T00:52:26.287Z,0.00
2019-06-20T00:53:26.245Z,0.00
2019-06-20T00:54:26.235Z,0.00
2019-06-20T00:55:26.238Z,0.00
2019-06-20T00:56:26.247Z,0.00
2019-06-20T00:57:26.199Z,0.00
2019-06-20T00:58:26.188Z,0.00
2019-06-20T00:59:26.182Z,0.00
2019-06-20T01:00:26.170Z,0.00
2019-06-20T01:01:26.157Z,0.00
2019-06-20T01:02:26.167Z,0.00
2019-06-20T01:03:26.136Z,0.00
2019-06-20T01:04:26.126Z,0.00
2019-06-20T01:05:26.113Z,0.00
2019-06-20T01:06:26.106Z,0.00
2019-06-20T01:07:26.118Z,0.00
2019-06-20T01:08:26.089Z,0.00
2019-06-20T01:09:26.069Z,0.00
2019-06-20T01:10:26.055Z,0.00
2019-06-20T01:11:26.062Z,0.00
2019-06-20T01:12:26.058Z,0.00
2019-06-20T01:13:33.723Z,0.00
2019-06-20T01:14:27.012Z,0.00
2019-06-20T01:15:26.027Z,0.00
2019-06-20T01:16:26.008Z,0.00
2019-06-20T01:17:26.020Z,0.00
2019-06-20T01:18:25.972Z,0.00
2019-06-20T01:19:25.967Z,0.00
2019-06-20T01:20:25.959Z,0.00
2019-06-20T01:21:25.933Z,0.00
2019-06-20T01:22:25.944Z,0.00
2019-06-20T01:23:25.914Z,0.00
2019-06-20T01:24:25.902Z,0.00
2019-06-20T01:25:25.890Z,0.00
2019-06-20T01:26:25.880Z,0.00
2019-06-20T01:27:25.896Z,0.00
2019-06-20T01:28:25.859Z,0.00
2019-06-20T01:29:25.847Z,0.00
2019-06-20T01:30:25.837Z,0.00
2019-06-20T01:31:25.824Z,0.00
2019-06-20T01:32:25.842Z,0.00
2019-06-20T01:33:25.824Z,0.00
2019-06-20T01:34:25.800Z,0.00
2019-06-20T01:35:25.782Z,0.00
2019-06-20T01:36:25.767Z,0.00
2019-06-20T01:37:25.789Z,0.00
2019-06-20T01:38:25.791Z,0.00
2019-06-20T01:39:25.754Z,0.00
2019-06-20T01:40:25.725Z,0.00
2019-06-20T01:41:25.720Z,0.00
2019-06-20T01:42:25.723Z,0.00
2019-06-20T01:43:25.720Z,0.00
2019-06-20T01:44:25.684Z,0.00
2019-06-20T01:45:25.679Z,0.00
2019-06-20T01:46:25.656Z,0.00
2019-06-20T01:47:25.650Z,0.00
2019-06-20T01:48:25.664Z,0.00
2019-06-20T01:49:25.630Z,0.00
2019-06-20T01:50:25.660Z,0.00
2019-06-20T01:51:25.622Z,0.00
2019-06-20T01:52:25.593Z,0.00
2019-06-20T01:53:25.604Z,0.00
2019-06-20T01:54:25.577Z,0.00
2019-06-20T01:55:25.573Z,0.00
2019-06-20T01:56:25.618Z,0.00
2019-06-20T01:57:25.541Z,0.00
2019-06-20T01:58:25.559Z,0.00
2019-06-20T01:59:25.533Z,0.00
2019-06-20T02:00:25.510Z,0.00
2019-06-20T02:01:25.495Z,0.00
2019-06-20T02:02:25.483Z,0.00
2019-06-20T02:03:25.498Z,0.00
2019-06-20T02:04:25.473Z,0.00
2019-06-20T02:05:25.461Z,0.00
2019-06-20T02:06:25.437Z,0.00
2019-06-20T02:07:28.107Z,0.00
2019-06-20T02:08:25.467Z,0.00
2019-06-20T02:09:25.407Z,0.00
2019-06-20T02:10:25.396Z,0.00
2019-06-20T02:11:25.383Z,0.00
2019-06-20T02:12:25.379Z,0.00
2019-06-20T02:13:25.435Z,0.00
2019-06-20T02:14:25.357Z,0.00
2019-06-20T02:15:25.348Z,0.00
2019-06-20T02:16:25.328Z,0.00
2019-06-20T02:17:25.318Z,0.00
2019-06-20T02:18:25.335Z,0.00
2019-06-20T02:19:25.299Z,0.00
2019-06-20T02:20:25.292Z,0.00
2019-06-20T02:21:25.278Z,0.00
2019-06-20T02:22:25.278Z,0.00
2019-06-20T02:23:25.250Z,0.00
2019-06-20T02:24:25.265Z,0.00
2019-06-20T02:25:25.231Z,0.00
2019-06-20T02:26:25.222Z,0.00
2019-06-20T02:27:25.212Z,0.00
2019-06-20T02:28:25.198Z,0.00
2019-06-20T02:29:25.212Z,0.00
2019-06-20T02:30:25.177Z,0.00
2019-06-20T02:31:25.172Z,0.00
2019-06-20T02:32:25.163Z,0.00
2019-06-20T02:33:25.143Z,0.00
2019-06-20T02:34:25.227Z,0.00
2019-06-20T02:35:25.123Z,0.00
2019-06-20T02:36:25.111Z,0.00
2019-06-20T02:37:25.106Z,0.00
2019-06-20T02:38:25.090Z,0.00
2019-06-20T02:39:25.131Z,0.00
2019-06-20T02:40:25.070Z,0.00
2019-06-20T02:41:25.054Z,0.00
2019-06-20T02:42:25.043Z,0.00
2019-06-20T02:43:25.042Z,0.00
2019-06-20T02:44:30.414Z,0.00
2019-06-20T02:45:26.057Z,0.00
2019-06-20T02:46:25.004Z,0.00
2019-06-20T02:47:24.986Z,0.00
2019-06-20T02:48:24.980Z,0.00
2019-06-20T02:49:25.021Z,0.00
2019-06-20T02:50:24.955Z,0.00
2019-06-20T02:51:24.948Z,0.00
2019-06-20T02:52:24.936Z,0.00
2019-06-20T02:53:24.930Z,0.00
2019-06-20T02:54:24.938Z,0.00
2019-06-20T02:55:24.902Z,0.00
2019-06-20T02:56:24.890Z,0.00
2019-06-20T02:57:24.879Z,0.00
2019-06-20T02:58:24.864Z,0.00
2019-06-20T02:59:24.854Z,4.00
2019-06-20T03:00:24.868Z,4.00
2019-06-20T03:01:24.832Z,4.00
2019-06-20T03:02:24.818Z,0.00
2019-06-20T03:03:24.809Z,0.00
2019-06-20T03:04:24.826Z,0.00
2019-06-20T03:05:24.787Z,0.00
2019-06-20T03:06:24.779Z,0.00
2019-06-20T03:08:25.882Z,0.00
2019-06-20T03:09:24.775Z,4.00
2019-06-20T03:10:24.754Z,4.00
2019-06-20T03:11:24.719Z,4.00
2019-06-20T03:12:24.715Z,4.00
2019-06-20T03:13:24.702Z,4.00
2019-06-20T03:14:24.709Z,4.00
2019-06-20T03:15:24.800Z,4.00
2019-06-20T03:16:24.667Z,4.00
2019-06-20T03:17:24.656Z,4.00
2019-06-20T03:18:24.647Z,0.00
2019-06-20T03:19:24.639Z,4.00
2019-06-20T03:20:24.653Z,4.00
2019-06-20T03:21:24.638Z,4.00
2019-06-20T03:22:24.664Z,4.00
2019-06-20T03:23:24.684Z,4.00
2019-06-20T03:24:24.587Z,4.00
2019-06-20T03:25:25.139Z,4.00
2019-06-20T03:26:24.574Z,4.00
2019-06-20T03:27:24.548Z,4.00
2019-06-20T03:28:24.539Z,4.00
2019-06-20T03:29:24.521Z,4.00
2019-06-20T03:30:24.516Z,4.00
2019-06-20T03:31:24.534Z,4.00
2019-06-20T03:32:24.492Z,4.00
2019-06-20T03:33:24.485Z,4.00
2019-06-20T03:34:24.477Z,4.00
2019-06-20T03:35:24.493Z,4.00
2019-06-20T03:36:24.483Z,8.00
2019-06-20T03:37:24.434Z,4.00
2019-06-20T03:38:24.430Z,8.00
2019-06-20T03:39:24.413Z,8.00
2019-06-20T03:40:24.405Z,8.00
2019-06-20T03:41:24.418Z,12.00
2019-06-20T03:42:24.378Z,8.00
2019-06-20T03:43:24.370Z,8.00
2019-06-20T03:44:24.372Z,8.00
2019-06-20T03:45:24.349Z,8.00
2019-06-20T03:46:24.364Z,8.00
2019-06-20T03:47:24.343Z,8.00
2019-06-20T03:48:24.367Z,12.00
2019-06-20T03:49:24.304Z,8.00
2019-06-20T03:50:24.291Z,8.00
2019-06-20T03:51:24.329Z,8.00
2019-06-20T03:52:24.322Z,12.00
2019-06-20T03:53:24.260Z,12.00
2019-06-20T03:54:24.264Z,12.00
2019-06-20T03:55:24.238Z,12.00
2019-06-20T03:56:24.346Z,12.00
2019-06-20T03:57:24.210Z,12.00
2019-06-20T03:58:24.202Z,12.00
2019-06-20T03:59:24.196Z,12.00
2019-06-20T04:00:24.184Z,12.00
2019-06-20T04:01:24.209Z,12.00
2019-06-20T04:02:24.161Z,12.00
2019-06-20T04:03:24.191Z,16.00
2019-06-20T04:04:24.140Z,16.00
2019-06-20T04:05:24.137Z,12.00
2019-06-20T04:06:24.121Z,16.00
2019-06-20T04:07:24.159Z,16.00
2019-06-20T04:08:24.096Z,16.00
2019-06-20T04:09:24.082Z,16.00
2019-06-20T04:10:24.070Z,16.00
2019-06-20T04:11:24.065Z,16.00
2019-06-20T04:12:24.086Z,12.00
2019-06-20T04:13:24.039Z,16.00
2019-06-20T04:14:24.029Z,16.00
2019-06-20T04:15:24.015Z,16.00
2019-06-20T04:16:24.007Z,12.00
2019-06-20T04:17:24.041Z,16.00
2019-06-20T04:18:23.983Z,16.00
2019-06-20T04:19:23.973Z,16.00
2019-06-20T04:20:23.961Z,16.00
2019-06-20T04:21:23.964Z,16.00
2019-06-20T04:22:23.972Z,12.00
2019-06-20T04:23:23.927Z,12.00
2019-06-20T04:24:23.915Z,12.00
2019-06-20T04:25:23.905Z,12.00
2019-06-20T04:26:23.903Z,12.00
2019-06-20T04:27:23.923Z,8.00
2019-06-20T04:28:23.871Z,12.00
2019-06-20T04:29:23.866Z,12.00
2019-06-20T04:30:23.854Z,12.00
2019-06-20T04:31:23.841Z,12.00
2019-06-20T04:32:23.860Z,12.00
2019-06-20T04:33:23.870Z,12.00
2019-06-20T04:34:23.804Z,12.00
2019-06-20T04:35:23.792Z,16.00
2019-06-20T04:36:23.786Z,16.00
2019-06-20T04:37:23.787Z,16.00
2019-06-20T04:38:23.800Z,20.00
2019-06-20T04:39:23.774Z,20.00
2019-06-20T04:40:23.740Z,28.00
2019-06-20T04:41:23.732Z,28.00
2019-06-20T04:42:23.717Z,24.00
2019-06-20T04:43:23.731Z,24.00
2019-06-20T04:44:23.705Z,28.00
2019-06-20T04:45:34.688Z,28.00
2019-06-20T04:46:24.674Z,28.00
2019-06-20T04:47:23.665Z,28.00
2019-06-20T04:48:23.675Z,28.00
2019-06-20T04:49:23.712Z,32.00
2019-06-20T04:50:23.637Z,32.00
2019-06-20T04:51:23.753Z,36.00
2019-06-20T04:52:23.605Z,32.00
2019-06-20T04:53:23.799Z,36.00
2019-06-20T04:54:23.589Z,40.00
2019-06-20T04:55:23.579Z,40.00
2019-06-20T04:56:23.591Z,40.00
2019-06-20T04:57:23.550Z,40.00
2019-06-20T04:58:23.592Z,44.00
2019-06-20T04:59:23.593Z,40.00
2019-06-20T05:00:23.520Z,44.00
2019-06-20T05:01:23.519Z,44.00
2019-06-20T05:02:23.506Z,44.00
2019-06-20T05:03:23.561Z,44.00
2019-06-20T05:04:23.477Z,48.00
2019-06-20T05:05:23.462Z,48.00
2019-06-20T05:06:23.479Z,48.00
2019-06-20T05:07:23.453Z,48.00
2019-06-20T05:08:23.465Z,52.00
2019-06-20T05:09:23.431Z,52.00
2019-06-20T05:10:23.411Z,52.00
2019-06-20T05:11:23.395Z,48.00
2019-06-20T05:12:23.389Z,48.00
2019-06-20T05:13:23.400Z,44.00
2019-06-20T05:14:23.392Z,44.00
2019-06-20T05:15:23.357Z,44.00
2019-06-20T05:16:23.349Z,44.00
2019-06-20T05:17:23.332Z,40.00
2019-06-20T05:18:23.335Z,48.00
2019-06-20T05:19:23.340Z,48.00
2019-06-20T05:20:23.299Z,52.00
2019-06-20T05:21:23.285Z,48.00
2019-06-20T05:22:23.278Z,52.00
2019-06-20T05:23:23.269Z,48.00
2019-06-20T05:24:25.572Z,48.00
2019-06-20T05:25:23.246Z,48.00
2019-06-20T05:26:23.235Z,48.00
2019-06-20T05:27:23.241Z,48.00
2019-06-20T05:28:23.232Z,52.00
2019-06-20T05:29:23.226Z,52.00
2019-06-20T05:30:23.187Z,52.00
2019-06-20T05:31:23.177Z,56.00
2019-06-20T05:32:23.185Z,60.00
2019-06-20T05:33:23.162Z,60.00
2019-06-20T05:34:23.175Z,64.00
2019-06-20T05:35:23.139Z,64.00
2019-06-20T05:36:23.124Z,68.00
2019-06-20T05:37:23.114Z,76.00
2019-06-20T05:38:23.105Z,84.00
2019-06-20T05:39:23.117Z,88.00
2019-06-20T05:40:23.123Z,84.00
2019-06-20T05:41:23.068Z,84.00
2019-06-20T05:42:23.067Z,92.00
2019-06-20T05:43:23.073Z,100.00
2019-06-20T05:44:23.052Z,100.00
2019-06-20T05:45:23.079Z,92.00
2019-06-20T05:46:23.016Z,84.00
2019-06-20T05:47:23.649Z,84.00
2019-06-20T05:48:22.999Z,88.00
2019-06-20T05:49:23.029Z,104.00
2019-06-20T05:50:22.996Z,120.00
2019-06-20T05:51:23.992Z,104.00
2019-06-20T05:52:22.946Z,92.00
2019-06-20T05:53:22.935Z,80.00
2019-06-20T05:54:22.922Z,80.00
2019-06-20T05:55:22.937Z,88.00
2019-06-20T05:56:22.904Z,88.00
2019-06-20T05:57:22.889Z,76.00
2019-06-20T05:58:22.885Z,84.00
2019-06-20T05:59:22.873Z,80.00
2019-06-20T06:00:22.887Z,80.00
2019-06-20T06:01:22.866Z,84.00
2019-06-20T06:02:22.848Z,80.00
2019-06-20T06:03:22.842Z,72.00
2019-06-20T06:04:22.817Z,80.00
2019-06-20T06:05:22.841Z,80.00
2019-06-20T06:06:22.805Z,96.00
2019-06-20T06:07:23.077Z,120.00
2019-06-20T06:08:22.783Z,136.00
2019-06-20T06:09:22.758Z,140.00
2019-06-20T06:10:23.255Z,148.00
2019-06-20T06:11:22.768Z,148.00
2019-06-20T06:12:22.734Z,144.00
2019-06-20T06:13:22.725Z,144.00
2019-06-20T06:14:22.722Z,136.00
2019-06-20T06:15:22.714Z,140.00
2019-06-20T06:16:27.306Z,148.00
2019-06-20T06:17:23.673Z,144.00
2019-06-20T06:18:22.666Z,128.00
2019-06-20T06:19:22.655Z,112.00
2019-06-20T06:20:22.646Z,100.00
2019-06-20T06:21:22.659Z,96.00
2019-06-20T06:22:22.622Z,92.00
2019-06-20T06:23:22.621Z,100.00
2019-06-20T06:24:22.607Z,96.00
2019-06-20T06:25:22.582Z,84.00
2019-06-20T06:26:22.615Z,92.00
2019-06-20T06:27:22.564Z,112.00
2019-06-20T06:28:22.551Z,120.00
2019-06-20T06:29:22.540Z,140.00
2019-06-20T06:30:22.533Z,144.00
2019-06-20T06:31:22.550Z,160.00
2019-06-20T06:32:39.026Z,168.00
2019-06-20T06:33:23.497Z,144.00
2019-06-20T06:34:22.483Z,124.00
2019-06-20T06:35:22.474Z,124.00
2019-06-20T06:36:22.497Z,120.00
2019-06-20T06:37:22.451Z,120.00
2019-06-20T06:38:22.561Z,124.00
2019-06-20T06:39:22.427Z,132.00
2019-06-20T06:40:22.445Z,136.00
2019-06-20T06:41:22.439Z,152.00
2019-06-20T06:42:22.426Z,172.00
2019-06-20T06:43:22.385Z,192.00
2019-06-20T06:44:22.375Z,188.00
2019-06-20T06:45:22.371Z,200.00
2019-06-20T06:46:22.356Z,208.00
2019-06-20T06:47:22.378Z,208.00
2019-06-20T06:48:22.340Z,168.00
2019-06-20T06:49:22.339Z,148.00
2019-06-20T06:50:22.321Z,136.00
2019-06-20T06:51:22.296Z,128.00
2019-06-20T06:52:22.314Z,104.00
2019-06-20T06:54:22.267Z,52.00
2019-06-20T06:55:22.256Z,40.00
2019-06-20T06:56:22.253Z,40.00
2019-06-20T06:57:22.272Z,36.00
2019-06-20T06:58:22.223Z,40.00
2019-06-20T06:59:22.256Z,44.00
2019-06-20T07:00:22.237Z,48.00
2019-06-20T07:01:22.186Z,52.00
2019-06-20T07:02:22.203Z,56.00
2019-06-20T07:03:22.164Z,64.00
2019-06-20T07:04:22.152Z,80.00
2019-06-20T07:05:22.148Z,108.00
2019-06-20T07:06:22.137Z,124.00
2019-06-20T07:07:22.122Z,140.00
2019-06-20T07:08:22.147Z,152.00
2019-06-20T07:09:22.113Z,164.00
2019-06-20T07:10:22.088Z,180.00
2019-06-20T07:11:22.079Z,196.00
2019-06-20T07:12:22.068Z,204.00
2019-06-20T07:13:22.078Z,200.00
2019-06-20T07:14:22.049Z,200.00
2019-06-20T07:15:22.042Z,188.00
2019-06-20T07:16:22.031Z,196.00
2019-06-20T07:17:22.011Z,180.00
2019-06-20T07:18:22.039Z,148.00
2019-06-20T07:19:21.993Z,116.00
2019-06-20T07:20:21.976Z,104.00
2019-06-20T07:21:21.971Z,108.00
2019-06-20T07:22:21.966Z,120.00
2019-06-20T07:23:21.984Z,132.00
2019-06-20T07:24:21.931Z,136.00
2019-06-20T07:25:21.923Z,136.00
2019-06-20T07:26:21.912Z,132.00
2019-06-20T07:27:21.903Z,140.00
2019-06-20T07:28:21.927Z,148.00
2019-06-20T07:29:21.878Z,144.00
2019-06-20T07:30:22.045Z,136.00
2019-06-20T07:31:21.853Z,124.00
2019-06-20T07:32:21.843Z,104.00
2019-06-20T07:33:21.869Z,92.00
2019-06-20T07:34:21.834Z,80.00
2019-06-20T07:35:21.816Z,88.00
2019-06-20T07:36:21.804Z,108.00
2019-06-20T07:37:21.809Z,148.00
2019-06-20T07:38:21.782Z,204.00
2019-06-20T07:39:21.788Z,240.00
2019-06-20T07:40:21.762Z,260.00
2019-06-20T07:41:21.749Z,228.00
2019-06-20T07:42:22.202Z,196.00
2019-06-20T07:43:21.738Z,184.00
2019-06-20T07:44:21.744Z,168.00
2019-06-20T07:45:21.714Z,168.00
2019-06-20T07:46:21.690Z,172.00
2019-06-20T07:47:21.685Z,176.00
2019-06-20T07:48:21.685Z,176.00
2019-06-20T07:49:21.688Z,176.00
2019-06-20T07:50:21.647Z,172.00
2019-06-20T07:51:21.653Z,168.00
2019-06-20T07:52:21.620Z,168.00
2019-06-20T07:53:21.611Z,156.00
2019-06-20T07:54:21.635Z,152.00
2019-06-20T07:55:21.591Z,156.00
2019-06-20T07:56:21.588Z,152.00
2019-06-20T07:57:21.569Z,136.00
2019-06-20T07:58:21.560Z,124.00
2019-06-20T07:59:21.580Z,120.00
2019-06-20T08:00:21.655Z,124.00
2019-06-20T08:01:21.537Z,124.00
2019-06-20T08:02:21.534Z,124.00
2019-06-20T08:03:21.503Z,120.00
2019-06-20T08:04:21.610Z,120.00
2019-06-20T08:05:21.509Z,116.00
2019-06-20T08:06:21.481Z,120.00
2019-06-20T08:07:21.454Z,124.00
2019-06-20T08:08:21.441Z,128.00
2019-06-20T08:09:22.228Z,136.00
2019-06-20T08:10:21.456Z,132.00
2019-06-20T08:11:21.416Z,120.00
2019-06-20T08:12:21.420Z,104.00
2019-06-20T08:13:21.389Z,84.00
2019-06-20T08:14:21.385Z,68.00
2019-06-20T08:15:21.397Z,60.00
2019-06-20T08:16:22.147Z,52.00
2019-06-20T08:17:34.876Z,44.00
2019-06-20T08:18:22.331Z,40.00
2019-06-20T08:19:21.321Z,36.00
2019-06-20T08:20:21.346Z,44.00
2019-06-20T08:21:21.305Z,48.00
2019-06-20T08:22:21.289Z,48.00
2019-06-20T08:23:21.299Z,44.00
2019-06-20T08:24:21.345Z,40.00
2019-06-20T08:25:21.288Z,44.00
2019-06-20T08:26:21.252Z,48.00
2019-06-20T08:27:21.246Z,60.00
2019-06-20T08:28:21.223Z,88.00
2019-06-20T08:29:21.592Z,112.00
2019-06-20T08:30:21.237Z,136.00
2019-06-20T08:31:21.206Z,152.00
2019-06-20T08:32:21.190Z,168.00
2019-06-20T08:33:21.179Z,180.00
2019-06-20T08:34:21.171Z,192.00
2019-06-20T08:35:21.215Z,184.00
2019-06-20T08:36:21.138Z,172.00
2019-06-20T08:37:21.156Z,168.00
2019-06-20T08:38:21.126Z,172.00
2019-06-20T08:39:21.124Z,228.00
2019-06-20T08:40:21.093Z,252.00
2019-06-20T08:41:21.112Z,248.00
2019-06-20T08:42:21.071Z,240.00
2019-06-20T08:43:21.060Z,268.00
2019-06-20T08:44:21.068Z,252.00
2019-06-20T08:45:21.037Z,260.00
2019-06-20T08:46:21.049Z,284.00
2019-06-20T08:47:21.014Z,288.00
2019-06-20T08:48:21.008Z,292.00
2019-06-20T08:49:20.991Z,300.00
2019-06-20T08:50:21.008Z,312.00
2019-06-20T08:51:21.021Z,332.00
2019-06-20T08:52:20.961Z,316.00
2019-06-20T08:53:20.973Z,244.00
2019-06-20T08:54:20.950Z,236.00
2019-06-20T08:55:20.935Z,260.00
2019-06-20T08:56:20.938Z,344.00
2019-06-20T08:57:23.296Z,344.00
2019-06-20T08:58:20.893Z,304.00
2019-06-20T08:59:24.769Z,376.00
2019-06-20T09:00:20.877Z,288.00
2019-06-20T09:01:20.926Z,288.00
2019-06-20T09:02:20.864Z,360.00
2019-06-20T09:03:20.934Z,336.00
2019-06-20T09:04:22.530Z,304.00
2019-06-20T09:05:20.818Z,312.00
2019-06-20T09:06:20.809Z,300.00
2019-06-20T09:07:20.849Z,316.00
2019-06-20T09:08:20.784Z,380.00
2019-06-20T09:09:20.776Z,412.00
2019-06-20T09:10:20.763Z,364.00
2019-06-20T09:11:20.760Z,420.00
2019-06-20T09:12:20.757Z,352.00
2019-06-20T09:13:20.740Z,384.00
2019-06-20T09:14:20.717Z,324.00
2019-06-20T09:15:20.788Z,300.00
2019-06-20T09:16:24.613Z,256.00
2019-06-20T09:17:20.754Z,216.00
2019-06-20T09:18:21.631Z,204.00
2019-06-20T09:19:20.670Z,200.00
2019-06-20T09:20:20.645Z,196.00
2019-06-20T09:21:20.637Z,216.00
2019-06-20T09:22:20.666Z,232.00
2019-06-20T09:23:20.613Z,252.00
2019-06-20T09:24:20.606Z,280.00
2019-06-20T09:25:20.591Z,272.00
2019-06-20T09:26:20.580Z,284.00
2019-06-20T09:27:20.591Z,288.00
2019-06-20T09:28:20.558Z,292.00
2019-06-20T09:29:20.551Z,288.00
2019-06-20T09:30:20.541Z,284.00
2019-06-20T09:31:20.533Z,244.00
2019-06-20T09:32:20.508Z,220.00
2019-06-20T09:33:20.540Z,220.00
2019-06-20T09:34:20.489Z,224.00
2019-06-20T09:35:20.479Z,224.00
2019-06-20T09:36:20.571Z,236.00
2019-06-20T09:37:20.459Z,232.00
2019-06-20T09:38:20.464Z,220.00
2019-06-20T09:39:20.435Z,216.00
2019-06-20T09:40:20.420Z,224.00
2019-06-20T09:41:20.426Z,236.00
2019-06-20T09:42:20.410Z,244.00
2019-06-20T09:43:27.523Z,260.00
2019-06-20T09:44:21.379Z,304.00
2019-06-20T09:45:20.391Z,304.00
2019-06-20T09:46:20.351Z,332.00
2019-06-20T09:47:20.343Z,276.00
2019-06-20T09:48:20.358Z,300.00
2019-06-20T09:49:20.329Z,276.00
2019-06-20T09:50:20.319Z,236.00
2019-06-20T09:51:20.296Z,224.00
2019-06-20T09:52:20.290Z,232.00
2019-06-20T09:53:20.325Z,232.00
2019-06-20T09:54:20.275Z,252.00
2019-06-20T09:55:20.260Z,280.00
2019-06-20T09:56:20.247Z,288.00
2019-06-20T09:57:20.236Z,300.00
2019-06-20T09:58:20.218Z,304.00
2019-06-20T09:59:27.513Z,412.00
2019-06-20T10:00:21.196Z,392.00
2019-06-20T10:01:20.207Z,344.00
2019-06-20T10:02:20.185Z,300.00
2019-06-20T10:03:20.174Z,264.00
2019-06-20T10:04:21.607Z,264.00
2019-06-20T10:05:20.139Z,272.00
2019-06-20T10:06:20.134Z,272.00
2019-06-20T10:07:20.125Z,268.00
2019-06-20T10:08:20.117Z,264.00
2019-06-20T10:09:20.136Z,260.00
2019-06-20T10:10:20.241Z,264.00
2019-06-20T10:11:20.101Z,268.00
2019-06-20T10:12:20.063Z,272.00
2019-06-20T10:13:20.062Z,280.00
2019-06-20T10:14:20.195Z,300.00
2019-06-20T10:15:20.042Z,316.00
2019-06-20T10:16:20.021Z,304.00
2019-06-20T10:17:20.008Z,300.00
2019-06-20T10:18:19.998Z,300.00
2019-06-20T10:19:20.010Z,300.00
2019-06-20T10:20:19.979Z,304.00
2019-06-20T10:21:19.960Z,292.00
2019-06-20T10:22:19.979Z,288.00
2019-06-20T10:23:19.973Z,292.00
2019-06-20T10:24:19.925Z,304.00
2019-06-20T10:25:19.943Z,324.00
2019-06-20T10:26:19.903Z,348.00
2019-06-20T10:27:19.915Z,368.00
2019-06-20T10:28:19.921Z,384.00
2019-06-20T10:29:19.877Z,388.00
2019-06-20T10:30:19.900Z,432.00
2019-06-20T10:31:19.845Z,524.00
2019-06-20T10:32:19.845Z,524.00
2019-06-20T10:33:19.828Z,536.00
2019-06-20T10:34:19.819Z,540.00
2019-06-20T10:35:19.862Z,544.00
2019-06-20T10:36:19.794Z,492.00
2019-06-20T10:37:19.786Z,448.00
2019-06-20T10:38:19.789Z,488.00
2019-06-20T10:39:19.763Z,464.00
2019-06-20T10:40:19.782Z,508.00
2019-06-20T10:41:19.734Z,520.00
2019-06-20T10:42:19.732Z,420.00
2019-06-20T10:43:19.716Z,384.00
2019-06-20T10:44:19.709Z,364.00
2019-06-20T10:45:19.748Z,344.00
2019-06-20T10:46:19.687Z,360.00
2019-06-20T10:47:31.687Z,484.00
2019-06-20T10:48:20.668Z,468.00
2019-06-20T10:49:19.657Z,472.00
2019-06-20T10:50:19.648Z,464.00
2019-06-20T10:51:19.654Z,476.00
2019-06-20T10:52:19.689Z,484.00
2019-06-20T10:53:19.625Z,368.00
2019-06-20T10:54:19.619Z,440.00
2019-06-20T10:55:19.589Z,460.00
2019-06-20T10:56:19.610Z,368.00
2019-06-20T10:57:19.561Z,376.00
2019-06-20T10:58:19.549Z,552.00
2019-06-20T10:59:19.533Z,544.00
2019-06-20T11:00:30.189Z,528.00
2019-06-20T11:01:20.655Z,528.00
2019-06-20T11:02:19.545Z,512.00
2019-06-20T11:03:19.859Z,420.00
2019-06-20T11:04:19.479Z,512.00
2019-06-20T11:05:19.484Z,500.00
2019-06-20T11:06:19.481Z,516.00
2019-06-20T11:07:19.448Z,524.00
2019-06-20T11:08:19.438Z,504.00
2019-06-20T11:09:19.434Z,496.00
2019-06-20T11:10:19.442Z,508.00
2019-06-20T11:11:19.446Z,492.00
2019-06-20T11:12:19.396Z,388.00
2019-06-20T11:13:19.404Z,356.00
2019-06-20T11:14:19.380Z,340.00
2019-06-20T11:15:19.361Z,368.00
2019-06-20T11:16:19.432Z,516.00
2019-06-20T11:17:19.374Z,472.00
2019-06-20T11:18:19.342Z,316.00
2019-06-20T11:19:19.326Z,328.00
2019-06-20T11:20:19.319Z,452.00
2019-06-20T11:21:19.327Z,292.00
2019-06-20T11:22:19.300Z,312.00
2019-06-20T11:23:19.302Z,440.00
2019-06-20T11:24:19.274Z,416.00
2019-06-20T11:25:20.118Z,416.00
2019-06-20T11:26:19.242Z,320.00
2019-06-20T11:27:19.236Z,356.00
2019-06-20T11:28:19.252Z,456.00
2019-06-20T11:29:19.209Z,336.00
2019-06-20T11:30:19.251Z,460.00
2019-06-20T11:31:19.192Z,460.00
2019-06-20T11:32:19.209Z,284.00
2019-06-20T11:33:19.208Z,280.00
2019-06-20T11:34:19.144Z,260.00
2019-06-20T11:35:19.134Z,244.00
2019-06-20T11:36:19.169Z,240.00
2019-06-20T11:37:19.119Z,244.00
2019-06-20T11:38:19.146Z,260.00
2019-06-20T11:39:19.092Z,292.00
2019-06-20T11:40:19.086Z,468.00
2019-06-20T11:41:19.133Z,444.00
2019-06-20T11:42:19.068Z,256.00
2019-06-20T11:43:19.100Z,216.00
2019-06-20T11:44:19.043Z,192.00
2019-06-20T11:45:19.024Z,172.00
2019-06-20T11:46:19.050Z,172.00
2019-06-20T11:47:20.622Z,180.00
2019-06-20T11:48:19.033Z,204.00
2019-06-20T11:49:18.982Z,240.00
2019-06-20T11:50:18.973Z,448.00
2019-06-20T11:51:18.981Z,400.00
2019-06-20T11:52:18.946Z,284.00
2019-06-20T11:53:18.960Z,236.00
2019-06-20T11:54:18.928Z,232.00
2019-06-20T11:55:18.924Z,204.00
2019-06-20T11:56:18.907Z,204.00
2019-06-20T11:57:18.894Z,220.00
2019-06-20T11:58:18.920Z,236.00
2019-06-20T11:59:18.868Z,268.00
2019-06-20T12:00:18.860Z,308.00
2019-06-20T12:01:32.233Z,340.00
2019-06-20T12:02:19.839Z,368.00
2019-06-20T12:03:18.852Z,400.00
2019-06-20T12:04:18.824Z,408.00
2019-06-20T12:05:18.817Z,384.00
2019-06-20T12:06:18.793Z,368.00
2019-06-20T12:07:18.777Z,352.00
2019-06-20T12:08:18.799Z,340.00
2019-06-20T12:09:18.772Z,340.00
2019-06-20T12:10:18.748Z,356.00
2019-06-20T12:11:18.732Z,396.00
2019-06-20T12:12:18.731Z,528.00
2019-06-20T12:13:18.724Z,512.00
2019-06-20T12:14:18.735Z,452.00
2019-06-20T12:15:18.724Z,356.00
2019-06-20T12:16:18.677Z,324.00
2019-06-20T12:17:18.704Z,324.00
2019-06-20T12:18:18.699Z,248.00
2019-06-20T12:19:18.682Z,200.00
2019-06-20T12:20:18.635Z,180.00
2019-06-20T12:21:18.645Z,176.00
2019-06-20T12:22:18.609Z,176.00
2019-06-20T12:23:18.613Z,180.00
2019-06-20T12:24:18.621Z,192.00
2019-06-20T12:25:18.598Z,204.00
2019-06-20T12:26:18.570Z,220.00
2019-06-20T12:27:18.567Z,240.00
2019-06-20T12:28:18.555Z,260.00
2019-06-20T12:29:18.580Z,268.00
2019-06-20T12:30:18.557Z,288.00
2019-06-20T12:31:19.967Z,328.00
2019-06-20T12:32:18.520Z,380.00
2019-06-20T12:33:18.588Z,400.00
2019-06-20T12:34:18.509Z,428.00
2019-06-20T12:35:18.485Z,420.00
2019-06-20T12:36:18.469Z,428.00
2019-06-20T12:37:18.459Z,452.00
2019-06-20T12:38:18.442Z,524.00
2019-06-20T12:39:18.503Z,456.00
2019-06-20T12:40:18.465Z,420.00
2019-06-20T12:41:18.412Z,496.00
2019-06-20T12:42:18.406Z,428.00
2019-06-20T12:43:18.599Z,304.00
2019-06-20T12:44:18.412Z,284.00
2019-06-20T12:45:18.373Z,296.00
2019-06-20T12:46:18.354Z,304.00
2019-06-20T12:47:18.355Z,284.00
2019-06-20T12:48:18.328Z,268.00
2019-06-20T12:49:18.331Z,252.00
2019-06-20T12:50:18.344Z,236.00
2019-06-20T12:51:18.290Z,232.00